sensor_id;sensor_type;location;lat;lon;timestamp;P1;durP1;ratioP1;P2;durP2;ratioP2
8225;SDS011;4154;48.810;9.012;2022-10-16T00:01:35;1.90;;;1.65;;
8225;SDS011;4154;48.810;9.012;2022-10-16T00:07:43;2.88;;;1.70;;
8225;SDS011;4154;48.810;9.012;2022-10-16T00:10:09;1.90;;;1.80;;
8225;SDS011;4154;48.810;9.012;2022-10-16T00:12:35;2.08;;;1.50;;
8225;SDS011;4154;48.810;9.012;2022-10-16T00:15:01;3.33;;;1.60;;
8225;SDS011;4154;48.810;9.012;2022-10-16T00:17:27;1.98;;;1.70;;
8225;SDS011;4154;48.810;9.012;2022-10-16T00:19:54;3.60;;;1.73;;
8225;SDS011;4154;48.810;9.012;2022-10-16T00:22:22;2.58;;;1.75;;
8225;SDS011;4154;48.810;9.012;2022-10-16T00:24:48;2.45;;;1.80;;
8225;SDS011;4154;48.810;9.012;2022-10-16T00:27:14;1.80;;;1.70;;
8225;SDS011;4154;48.810;9.012;2022-10-16T00:29:40;2.35;;;1.83;;
8225;SDS011;4154;48.810;9.012;2022-10-16T00:32:06;1.80;;;1.67;;
8225;SDS011;4154;48.810;9.012;2022-10-16T00:34:32;2.00;;;1.80;;
8225;SDS011;4154;48.810;9.012;2022-10-16T00:36:57;1.80;;;1.70;;
8225;SDS011;4154;48.810;9.012;2022-10-16T00:39:24;2.15;;;1.60;;
8225;SDS011;4154;48.810;9.012;2022-10-16T00:41:50;2.85;;;1.70;;
8225;SDS011;4154;48.810;9.012;2022-10-16T00:47:27;1.67;;;1.50;;
8225;SDS011;4154;48.810;9.012;2022-10-16T00:50:08;3.22;;;1.60;;
8225;SDS011;4154;48.810;9.012;2022-10-16T00:52:41;1.67;;;1.58;;
8225;SDS011;4154;48.810;9.012;2022-10-16T00:55:12;1.70;;;1.60;;
8225;SDS011;4154;48.810;9.012;2022-10-16T00:57:38;1.48;;;1.38;;
8225;SDS011;4154;48.810;9.012;2022-10-16T01:00:07;1.73;;;1.50;;
8225;SDS011;4154;48.810;9.012;2022-10-16T01:02:37;1.92;;;1.80;;
8225;SDS011;4154;48.810;9.012;2022-10-16T01:05:03;2.38;;;1.70;;
8225;SDS011;4154;48.810;9.012;2022-10-16T01:07:34;3.78;;;1.80;;
8225;SDS011;4154;48.810;9.012;2022-10-16T01:13:07;2.28;;;1.92;;
8225;SDS011;4154;48.810;9.012;2022-10-16T01:16:06;3.05;;;1.95;;
8225;SDS011;4154;48.810;9.012;2022-10-16T01:19:12;2.65;;;1.80;;
8225;SDS011;4154;48.810;9.012;2022-10-16T01:21:51;1.90;;;1.80;;
8225;SDS011;4154;48.810;9.012;2022-10-16T01:24:27;2.05;;;1.63;;
8225;SDS011;4154;48.810;9.012;2022-10-16T01:27:15;3.72;;;1.90;;
8225;SDS011;4154;48.810;9.012;2022-10-16T01:33:00;2.35;;;1.67;;
8225;SDS011;4154;48.810;9.012;2022-10-16T01:35:37;2.28;;;1.70;;
8225;SDS011;4154;48.810;9.012;2022-10-16T01:38:28;2.63;;;1.55;;
8225;SDS011;4154;48.810;9.012;2022-10-16T01:41:21;1.90;;;1.80;;
8225;SDS011;4154;48.810;9.012;2022-10-16T01:44:01;2.50;;;1.80;;
8225;SDS011;4154;48.810;9.012;2022-10-16T01:46:35;1.88;;;1.70;;
8225;SDS011;4154;48.810;9.012;2022-10-16T01:49:06;2.58;;;1.90;;
8225;SDS011;4154;48.810;9.012;2022-10-16T01:51:35;3.10;;;1.80;;
8225;SDS011;4154;48.810;9.012;2022-10-16T01:54:02;2.90;;;1.98;;
8225;SDS011;4154;48.810;9.012;2022-10-16T01:56:33;4.80;;;1.95;;
8225;SDS011;4154;48.810;9.012;2022-10-16T01:59:05;3.65;;;2.00;;
8225;SDS011;4154;48.810;9.012;2022-10-16T02:01:36;3.15;;;1.60;;
8225;SDS011;4154;48.810;9.012;2022-10-16T02:04:09;1.70;;;1.60;;
8225;SDS011;4154;48.810;9.012;2022-10-16T02:06:43;3.25;;;1.80;;
8225;SDS011;4154;48.810;9.012;2022-10-16T02:09:10;1.92;;;1.60;;
8225;SDS011;4154;48.810;9.012;2022-10-16T02:11:38;3.05;;;1.60;;
8225;SDS011;4154;48.810;9.012;2022-10-16T02:14:05;1.73;;;1.63;;
8225;SDS011;4154;48.810;9.012;2022-10-16T02:16:39;1.80;;;1.63;;
8225;SDS011;4154;48.810;9.012;2022-10-16T02:19:09;2.80;;;1.60;;
8225;SDS011;4154;48.810;9.012;2022-10-16T02:21:39;2.92;;;1.80;;
8225;SDS011;4154;48.810;9.012;2022-10-16T02:30:22;1.58;;;1.48;;
8225;SDS011;4154;48.810;9.012;2022-10-16T02:32:58;2.80;;;1.60;;
8225;SDS011;4154;48.810;9.012;2022-10-16T02:35:28;2.35;;;1.67;;
8225;SDS011;4154;48.810;9.012;2022-10-16T02:37:56;2.75;;;1.50;;
8225;SDS011;4154;48.810;9.012;2022-10-16T02:40:23;3.03;;;1.70;;
8225;SDS011;4154;48.810;9.012;2022-10-16T02:42:51;1.60;;;1.50;;
8225;SDS011;4154;48.810;9.012;2022-10-16T02:45:19;2.65;;;1.40;;
8225;SDS011;4154;48.810;9.012;2022-10-16T02:47:47;1.60;;;1.50;;
8225;SDS011;4154;48.810;9.012;2022-10-16T02:50:13;1.70;;;1.45;;
8225;SDS011;4154;48.810;9.012;2022-10-16T02:52:40;3.42;;;1.77;;
8225;SDS011;4154;48.810;9.012;2022-10-16T02:55:06;1.77;;;1.50;;
8225;SDS011;4154;48.810;9.012;2022-10-16T02:57:32;4.22;;;2.00;;
8225;SDS011;4154;48.810;9.012;2022-10-16T02:59:58;2.00;;;1.70;;
8225;SDS011;4154;48.810;9.012;2022-10-16T03:02:24;2.20;;;1.80;;
8225;SDS011;4154;48.810;9.012;2022-10-16T03:04:50;4.75;;;1.70;;
8225;SDS011;4154;48.810;9.012;2022-10-16T03:07:16;2.10;;;1.90;;
8225;SDS011;4154;48.810;9.012;2022-10-16T03:09:42;1.70;;;1.60;;
8225;SDS011;4154;48.810;9.012;2022-10-16T03:12:08;1.70;;;1.60;;
8225;SDS011;4154;48.810;9.012;2022-10-16T03:14:34;1.80;;;1.60;;
8225;SDS011;4154;48.810;9.012;2022-10-16T03:17:00;1.80;;;1.70;;
8225;SDS011;4154;48.810;9.012;2022-10-16T03:19:26;2.22;;;1.70;;
8225;SDS011;4154;48.810;9.012;2022-10-16T03:21:52;2.88;;;1.70;;
8225;SDS011;4154;48.810;9.012;2022-10-16T03:24:18;2.45;;;1.65;;
8225;SDS011;4154;48.810;9.012;2022-10-16T03:26:44;2.67;;;2.00;;
8225;SDS011;4154;48.810;9.012;2022-10-16T03:29:10;1.85;;;1.75;;
8225;SDS011;4154;48.810;9.012;2022-10-16T03:31:36;2.00;;;1.80;;
8225;SDS011;4154;48.810;9.012;2022-10-16T03:34:01;2.72;;;1.67;;
8225;SDS011;4154;48.810;9.012;2022-10-16T03:36:28;2.05;;;1.48;;
8225;SDS011;4154;48.810;9.012;2022-10-16T03:38:53;2.10;;;1.70;;
8225;SDS011;4154;48.810;9.012;2022-10-16T03:41:20;2.22;;;1.70;;
8225;SDS011;4154;48.810;9.012;2022-10-16T03:43:45;1.70;;;1.60;;
8225;SDS011;4154;48.810;9.012;2022-10-16T03:46:11;3.03;;;1.50;;
8225;SDS011;4154;48.810;9.012;2022-10-16T03:48:37;2.47;;;1.67;;
8225;SDS011;4154;48.810;9.012;2022-10-16T03:51:04;1.80;;;1.70;;
8225;SDS011;4154;48.810;9.012;2022-10-16T03:53:31;1.92;;;1.73;;
8225;SDS011;4154;48.810;9.012;2022-10-16T03:55:57;1.80;;;1.42;;
8225;SDS011;4154;48.810;9.012;2022-10-16T03:58:26;2.35;;;1.50;;
8225;SDS011;4154;48.810;9.012;2022-10-16T04:00:52;2.13;;;1.45;;
8225;SDS011;4154;48.810;9.012;2022-10-16T04:03:18;1.77;;;1.63;;
8225;SDS011;4154;48.810;9.012;2022-10-16T04:05:44;2.22;;;1.55;;
8225;SDS011;4154;48.810;9.012;2022-10-16T04:08:10;2.65;;;1.80;;
8225;SDS011;4154;48.810;9.012;2022-10-16T04:10:38;2.58;;;1.63;;
8225;SDS011;4154;48.810;9.012;2022-10-16T04:16:04;3.25;;;1.77;;
8225;SDS011;4154;48.810;9.012;2022-10-16T04:18:30;2.45;;;1.50;;
8225;SDS011;4154;48.810;9.012;2022-10-16T04:20:56;2.03;;;1.60;;
8225;SDS011;4154;48.810;9.012;2022-10-16T04:23:27;2.47;;;1.80;;
8225;SDS011;4154;48.810;9.012;2022-10-16T04:25:53;3.75;;;1.77;;
8225;SDS011;4154;48.810;9.012;2022-10-16T04:28:19;1.65;;;1.52;;
8225;SDS011;4154;48.810;9.012;2022-10-16T04:30:45;2.58;;;1.60;;
8225;SDS011;4154;48.810;9.012;2022-10-16T04:33:11;1.90;;;1.60;;
8225;SDS011;4154;48.810;9.012;2022-10-16T04:35:38;4.75;;;1.63;;
8225;SDS011;4154;48.810;9.012;2022-10-16T04:38:04;3.75;;;1.60;;
8225;SDS011;4154;48.810;9.012;2022-10-16T04:40:30;1.88;;;1.60;;
8225;SDS011;4154;48.810;9.012;2022-10-16T04:46:42;1.65;;;1.50;;
8225;SDS011;4154;48.810;9.012;2022-10-16T04:49:09;2.03;;;1.80;;
8225;SDS011;4154;48.810;9.012;2022-10-16T04:51:35;2.80;;;1.80;;
8225;SDS011;4154;48.810;9.012;2022-10-16T04:54:01;2.20;;;1.70;;
8225;SDS011;4154;48.810;9.012;2022-10-16T04:56:27;4.07;;;1.70;;
8225;SDS011;4154;48.810;9.012;2022-10-16T04:58:53;2.47;;;1.83;;
8225;SDS011;4154;48.810;9.012;2022-10-16T05:01:19;2.65;;;1.65;;
8225;SDS011;4154;48.810;9.012;2022-10-16T05:03:45;3.50;;;1.70;;
8225;SDS011;4154;48.810;9.012;2022-10-16T05:06:11;4.82;;;1.75;;
8225;SDS011;4154;48.810;9.012;2022-10-16T05:08:37;2.38;;;1.70;;
8225;SDS011;4154;48.810;9.012;2022-10-16T05:11:03;1.92;;;1.80;;
8225;SDS011;4154;48.810;9.012;2022-10-16T05:13:29;3.28;;;1.70;;
8225;SDS011;4154;48.810;9.012;2022-10-16T05:15:54;1.60;;;1.50;;
8225;SDS011;4154;48.810;9.012;2022-10-16T05:18:22;3.65;;;1.70;;
8225;SDS011;4154;48.810;9.012;2022-10-16T05:20:47;2.60;;;1.83;;
8225;SDS011;4154;48.810;9.012;2022-10-16T05:23:13;2.20;;;1.58;;
8225;SDS011;4154;48.810;9.012;2022-10-16T05:25:39;1.90;;;1.63;;
8225;SDS011;4154;48.810;9.012;2022-10-16T05:28:05;2.38;;;1.58;;
8225;SDS011;4154;48.810;9.012;2022-10-16T05:30:31;1.80;;;1.60;;
8225;SDS011;4154;48.810;9.012;2022-10-16T05:32:57;3.20;;;1.70;;
8225;SDS011;4154;48.810;9.012;2022-10-16T05:35:23;2.42;;;1.80;;
8225;SDS011;4154;48.810;9.012;2022-10-16T05:37:49;3.20;;;1.90;;
8225;SDS011;4154;48.810;9.012;2022-10-16T05:40:15;1.80;;;1.70;;
8225;SDS011;4154;48.810;9.012;2022-10-16T05:42:41;2.67;;;1.80;;
8225;SDS011;4154;48.810;9.012;2022-10-16T05:45:08;2.60;;;2.00;;
8225;SDS011;4154;48.810;9.012;2022-10-16T05:47:36;5.00;;;2.50;;
8225;SDS011;4154;48.810;9.012;2022-10-16T05:50:03;2.53;;;2.33;;
8225;SDS011;4154;48.810;9.012;2022-10-16T05:52:29;3.72;;;2.33;;
8225;SDS011;4154;48.810;9.012;2022-10-16T05:54:55;4.50;;;2.10;;
8225;SDS011;4154;48.810;9.012;2022-10-16T05:57:21;3.50;;;1.80;;
8225;SDS011;4154;48.810;9.012;2022-10-16T05:59:47;2.63;;;1.83;;
8225;SDS011;4154;48.810;9.012;2022-10-16T06:02:13;2.08;;;1.80;;
8225;SDS011;4154;48.810;9.012;2022-10-16T06:04:39;3.47;;;1.80;;
8225;SDS011;4154;48.810;9.012;2022-10-16T06:07:06;3.20;;;1.90;;
8225;SDS011;4154;48.810;9.012;2022-10-16T06:09:33;3.35;;;1.92;;
8225;SDS011;4154;48.810;9.012;2022-10-16T06:11:58;1.83;;;1.73;;
8225;SDS011;4154;48.810;9.012;2022-10-16T06:14:24;2.72;;;1.80;;
8225;SDS011;4154;48.810;9.012;2022-10-16T06:16:50;2.65;;;1.70;;
8225;SDS011;4154;48.810;9.012;2022-10-16T06:19:16;2.75;;;1.80;;
8225;SDS011;4154;48.810;9.012;2022-10-16T06:21:43;1.88;;;1.70;;
8225;SDS011;4154;48.810;9.012;2022-10-16T06:27:50;1.77;;;1.67;;
8225;SDS011;4154;48.810;9.012;2022-10-16T06:30:15;3.00;;;1.85;;
8225;SDS011;4154;48.810;9.012;2022-10-16T06:32:41;2.92;;;1.88;;
8225;SDS011;4154;48.810;9.012;2022-10-16T06:35:07;2.42;;;1.58;;
8225;SDS011;4154;48.810;9.012;2022-10-16T06:37:33;2.13;;;2.00;;
8225;SDS011;4154;48.810;9.012;2022-10-16T06:39:59;4.55;;;1.83;;
8225;SDS011;4154;48.810;9.012;2022-10-16T06:42:25;3.33;;;1.88;;
8225;SDS011;4154;48.810;9.012;2022-10-16T06:44:52;2.50;;;2.10;;
8225;SDS011;4154;48.810;9.012;2022-10-16T06:47:18;2.50;;;1.70;;
8225;SDS011;4154;48.810;9.012;2022-10-16T06:49:44;3.65;;;1.90;;
8225;SDS011;4154;48.810;9.012;2022-10-16T06:52:10;2.60;;;1.70;;
8225;SDS011;4154;48.810;9.012;2022-10-16T06:54:35;2.00;;;1.70;;
8225;SDS011;4154;48.810;9.012;2022-10-16T06:57:02;2.78;;;1.88;;
8225;SDS011;4154;48.810;9.012;2022-10-16T06:59:27;2.00;;;1.83;;
8225;SDS011;4154;48.810;9.012;2022-10-16T07:01:54;2.70;;;1.70;;
8225;SDS011;4154;48.810;9.012;2022-10-16T07:04:19;2.75;;;1.80;;
8225;SDS011;4154;48.810;9.012;2022-10-16T07:06:45;2.55;;;1.70;;
8225;SDS011;4154;48.810;9.012;2022-10-16T07:09:11;3.05;;;1.70;;
8225;SDS011;4154;48.810;9.012;2022-10-16T07:11:38;3.88;;;2.22;;
8225;SDS011;4154;48.810;9.012;2022-10-16T07:14:12;2.30;;;2.10;;
8225;SDS011;4154;48.810;9.012;2022-10-16T07:16:45;2.47;;;2.00;;
8225;SDS011;4154;48.810;9.012;2022-10-16T07:19:12;2.08;;;1.95;;
8225;SDS011;4154;48.810;9.012;2022-10-16T07:21:40;1.88;;;1.77;;
8225;SDS011;4154;48.810;9.012;2022-10-16T07:24:10;4.57;;;1.70;;
8225;SDS011;4154;48.810;9.012;2022-10-16T07:26:39;2.63;;;1.98;;
8225;SDS011;4154;48.810;9.012;2022-10-16T07:29:11;2.92;;;1.73;;
8225;SDS011;4154;48.810;9.012;2022-10-16T07:31:40;2.00;;;1.80;;
8225;SDS011;4154;48.810;9.012;2022-10-16T07:36:55;1.80;;;1.70;;
8225;SDS011;4154;48.810;9.012;2022-10-16T07:39:21;2.35;;;1.90;;
8225;SDS011;4154;48.810;9.012;2022-10-16T07:41:47;1.90;;;1.70;;
8225;SDS011;4154;48.810;9.012;2022-10-16T07:44:13;2.38;;;1.85;;
8225;SDS011;4154;48.810;9.012;2022-10-16T07:46:40;1.98;;;1.80;;
8225;SDS011;4154;48.810;9.012;2022-10-16T07:49:06;2.38;;;1.80;;
8225;SDS011;4154;48.810;9.012;2022-10-16T07:51:33;2.50;;;1.92;;
8225;SDS011;4154;48.810;9.012;2022-10-16T07:53:59;2.33;;;1.85;;
8225;SDS011;4154;48.810;9.012;2022-10-16T07:56:25;4.13;;;2.08;;
8225;SDS011;4154;48.810;9.012;2022-10-16T07:58:51;2.15;;;1.60;;
8225;SDS011;4154;48.810;9.012;2022-10-16T08:01:18;1.80;;;1.70;;
8225;SDS011;4154;48.810;9.012;2022-10-16T08:03:45;3.70;;;1.80;;
8225;SDS011;4154;48.810;9.012;2022-10-16T08:06:13;2.30;;;1.80;;
8225;SDS011;4154;48.810;9.012;2022-10-16T08:08:39;3.05;;;1.60;;
8225;SDS011;4154;48.810;9.012;2022-10-16T08:11:05;3.00;;;1.80;;
8225;SDS011;4154;48.810;9.012;2022-10-16T08:17:02;3.47;;;1.60;;
8225;SDS011;4154;48.810;9.012;2022-10-16T08:19:28;2.70;;;1.75;;
8225;SDS011;4154;48.810;9.012;2022-10-16T08:21:56;1.80;;;1.70;;
8225;SDS011;4154;48.810;9.012;2022-10-16T08:24:22;1.88;;;1.70;;
8225;SDS011;4154;48.810;9.012;2022-10-16T08:26:48;2.50;;;1.60;;
8225;SDS011;4154;48.810;9.012;2022-10-16T08:29:14;1.80;;;1.70;;
8225;SDS011;4154;48.810;9.012;2022-10-16T08:31:40;2.08;;;1.65;;
8225;SDS011;4154;48.810;9.012;2022-10-16T08:34:10;2.78;;;1.63;;
8225;SDS011;4154;48.810;9.012;2022-10-16T08:36:36;1.83;;;1.70;;
8225;SDS011;4154;48.810;9.012;2022-10-16T08:39:03;2.10;;;1.80;;
8225;SDS011;4154;48.810;9.012;2022-10-16T08:47:26;2.40;;;1.60;;
8225;SDS011;4154;48.810;9.012;2022-10-16T08:50:11;1.65;;;1.55;;
8225;SDS011;4154;48.810;9.012;2022-10-16T08:52:49;3.03;;;1.60;;
8225;SDS011;4154;48.810;9.012;2022-10-16T08:55:28;3.45;;;1.48;;
8225;SDS011;4154;48.810;9.012;2022-10-16T08:58:13;2.30;;;1.50;;
8225;SDS011;4154;48.810;9.012;2022-10-16T09:00:50;1.70;;;1.60;;
8225;SDS011;4154;48.810;9.012;2022-10-16T09:11:50;1.55;;;1.45;;
8225;SDS011;4154;48.810;9.012;2022-10-16T09:26:11;2.50;;;1.88;;
8225;SDS011;4154;48.810;9.012;2022-10-16T09:28:40;1.83;;;1.73;;
8225;SDS011;4154;48.810;9.012;2022-10-16T09:31:17;2.58;;;1.60;;
8225;SDS011;4154;48.810;9.012;2022-10-16T09:33:48;1.88;;;1.50;;
8225;SDS011;4154;48.810;9.012;2022-10-16T09:36:20;2.10;;;1.83;;
8225;SDS011;4154;48.810;9.012;2022-10-16T09:38:50;3.22;;;1.90;;
8225;SDS011;4154;48.810;9.012;2022-10-16T09:41:30;1.80;;;1.70;;
8225;SDS011;4154;48.810;9.012;2022-10-16T09:44:00;1.80;;;1.70;;
8225;SDS011;4154;48.810;9.012;2022-10-16T09:46:35;2.03;;;1.83;;
8225;SDS011;4154;48.810;9.012;2022-10-16T09:49:20;3.03;;;2.20;;
8225;SDS011;4154;48.810;9.012;2022-10-16T09:51:49;2.22;;;1.60;;
8225;SDS011;4154;48.810;9.012;2022-10-16T09:54:27;2.40;;;2.20;;
8225;SDS011;4154;48.810;9.012;2022-10-16T09:57:03;2.40;;;1.90;;
8225;SDS011;4154;48.810;9.012;2022-10-16T09:59:44;2.33;;;1.80;;
8225;SDS011;4154;48.810;9.012;2022-10-16T10:02:14;3.67;;;1.90;;
8225;SDS011;4154;48.810;9.012;2022-10-16T10:04:50;2.15;;;1.73;;
8225;SDS011;4154;48.810;9.012;2022-10-16T10:07:26;2.95;;;2.15;;
8225;SDS011;4154;48.810;9.012;2022-10-16T10:09:59;2.28;;;1.90;;
8225;SDS011;4154;48.810;9.012;2022-10-16T10:12:30;3.88;;;2.53;;
8225;SDS011;4154;48.810;9.012;2022-10-16T10:15:21;2.67;;;2.10;;
8225;SDS011;4154;48.810;9.012;2022-10-16T10:20:35;1.92;;;1.70;;
8225;SDS011;4154;48.810;9.012;2022-10-16T10:23:20;1.85;;;1.75;;
8225;SDS011;4154;48.810;9.012;2022-10-16T10:32:00;2.88;;;1.80;;
8225;SDS011;4154;48.810;9.012;2022-10-16T10:35:01;2.10;;;1.83;;
8225;SDS011;4154;48.810;9.012;2022-10-16T10:37:51;5.95;;;1.83;;
8225;SDS011;4154;48.810;9.012;2022-10-16T10:49:57;2.90;;;1.65;;
8225;SDS011;4154;48.810;9.012;2022-10-16T11:07:39;3.13;;;1.83;;
8225;SDS011;4154;48.810;9.012;2022-10-16T11:10:26;2.92;;;1.88;;
8225;SDS011;4154;48.810;9.012;2022-10-16T11:13:22;3.05;;;1.60;;
8225;SDS011;4154;48.810;9.012;2022-10-16T11:16:15;2.45;;;1.77;;
8225;SDS011;4154;48.810;9.012;2022-10-16T11:19:10;2.13;;;1.48;;
8225;SDS011;4154;48.810;9.012;2022-10-16T11:21:44;1.90;;;1.80;;
8225;SDS011;4154;48.810;9.012;2022-10-16T11:24:23;5.38;;;1.70;;
8225;SDS011;4154;48.810;9.012;2022-10-16T11:27:14;2.33;;;1.75;;
8225;SDS011;4154;48.810;9.012;2022-10-16T11:29:57;2.95;;;1.70;;
8225;SDS011;4154;48.810;9.012;2022-10-16T11:32:29;1.88;;;1.70;;
8225;SDS011;4154;48.810;9.012;2022-10-16T11:35:15;1.60;;;1.50;;
8225;SDS011;4154;48.810;9.012;2022-10-16T11:37:50;2.33;;;1.60;;
8225;SDS011;4154;48.810;9.012;2022-10-16T11:40:33;2.72;;;1.50;;
8225;SDS011;4154;48.810;9.012;2022-10-16T11:46:02;4.07;;;1.67;;
8225;SDS011;4154;48.810;9.012;2022-10-16T11:48:42;1.67;;;1.50;;
8225;SDS011;4154;48.810;9.012;2022-10-16T11:51:14;2.13;;;1.65;;
8225;SDS011;4154;48.810;9.012;2022-10-16T11:56:29;3.70;;;1.77;;
8225;SDS011;4154;48.810;9.012;2022-10-16T12:01:32;1.60;;;1.50;;
8225;SDS011;4154;48.810;9.012;2022-10-16T12:04:14;2.80;;;1.55;;
8225;SDS011;4154;48.810;9.012;2022-10-16T12:09:47;1.73;;;1.50;;
8225;SDS011;4154;48.810;9.012;2022-10-16T12:12:23;1.98;;;1.60;;
8225;SDS011;4154;48.810;9.012;2022-10-16T12:15:18;1.85;;;1.75;;
8225;SDS011;4154;48.810;9.012;2022-10-16T12:17:51;2.03;;;1.55;;
8225;SDS011;4154;48.810;9.012;2022-10-16T12:20:20;2.95;;;1.70;;
8225;SDS011;4154;48.810;9.012;2022-10-16T12:25:33;1.92;;;1.73;;
8225;SDS011;4154;48.810;9.012;2022-10-16T12:28:04;3.60;;;1.70;;
8225;SDS011;4154;48.810;9.012;2022-10-16T12:30:53;1.80;;;1.70;;
8225;SDS011;4154;48.810;9.012;2022-10-16T12:33:24;1.80;;;1.70;;
8225;SDS011;4154;48.810;9.012;2022-10-16T12:36:02;1.70;;;1.60;;
8225;SDS011;4154;48.810;9.012;2022-10-16T12:38:47;2.03;;;1.83;;
8225;SDS011;4154;48.810;9.012;2022-10-16T12:41:37;1.88;;;1.60;;
8225;SDS011;4154;48.810;9.012;2022-10-16T12:44:23;3.63;;;1.90;;
8225;SDS011;4154;48.810;9.012;2022-10-16T12:46:51;2.10;;;1.50;;
8225;SDS011;4154;48.810;9.012;2022-10-16T12:52:23;3.45;;;1.70;;
8225;SDS011;4154;48.810;9.012;2022-10-16T12:54:55;2.40;;;1.55;;
8225;SDS011;4154;48.810;9.012;2022-10-16T12:57:37;1.98;;;1.80;;
8225;SDS011;4154;48.810;9.012;2022-10-16T13:06:06;2.00;;;1.80;;
8225;SDS011;4154;48.810;9.012;2022-10-16T13:09:13;2.30;;;1.65;;
8225;SDS011;4154;48.810;9.012;2022-10-16T13:17:55;3.70;;;1.70;;
8225;SDS011;4154;48.810;9.012;2022-10-16T13:20:34;3.15;;;1.80;;
8225;SDS011;4154;48.810;9.012;2022-10-16T13:23:17;2.28;;;1.80;;
8225;SDS011;4154;48.810;9.012;2022-10-16T13:26:19;1.83;;;1.70;;
8225;SDS011;4154;48.810;9.012;2022-10-16T13:29:14;2.45;;;1.75;;
8225;SDS011;4154;48.810;9.012;2022-10-16T13:31:41;2.25;;;1.63;;
8225;SDS011;4154;48.810;9.012;2022-10-16T13:34:12;2.40;;;1.80;;
8225;SDS011;4154;48.810;9.012;2022-10-16T13:36:45;4.85;;;1.73;;
8225;SDS011;4154;48.810;9.012;2022-10-16T13:44:34;1.80;;;1.70;;
8225;SDS011;4154;48.810;9.012;2022-10-16T13:47:18;2.22;;;1.50;;
8225;SDS011;4154;48.810;9.012;2022-10-16T13:49:58;2.75;;;1.77;;
8225;SDS011;4154;48.810;9.012;2022-10-16T13:52:37;2.92;;;1.88;;
8225;SDS011;4154;48.810;9.012;2022-10-16T13:55:13;2.97;;;1.63;;
8225;SDS011;4154;48.810;9.012;2022-10-16T13:57:42;2.10;;;1.65;;
8225;SDS011;4154;48.810;9.012;2022-10-16T14:00:21;1.70;;;1.60;;
8225;SDS011;4154;48.810;9.012;2022-10-16T14:03:04;2.85;;;1.60;;
8225;SDS011;4154;48.810;9.012;2022-10-16T14:05:42;4.10;;;1.70;;
8225;SDS011;4154;48.810;9.012;2022-10-16T14:08:36;1.95;;;1.55;;
8225;SDS011;4154;48.810;9.012;2022-10-16T14:11:01;2.15;;;1.60;;
8225;SDS011;4154;48.810;9.012;2022-10-16T14:13:44;1.67;;;1.58;;
8225;SDS011;4154;48.810;9.012;2022-10-16T14:16:16;1.98;;;1.77;;
8225;SDS011;4154;48.810;9.012;2022-10-16T14:18:56;2.47;;;1.70;;
8225;SDS011;4154;48.810;9.012;2022-10-16T14:21:26;2.65;;;1.73;;
8225;SDS011;4154;48.810;9.012;2022-10-16T14:23:53;2.03;;;1.50;;
8225;SDS011;4154;48.810;9.012;2022-10-16T14:26:20;1.77;;;1.67;;
8225;SDS011;4154;48.810;9.012;2022-10-16T14:29:12;2.25;;;1.75;;
8225;SDS011;4154;48.810;9.012;2022-10-16T14:31:40;3.05;;;1.73;;
8225;SDS011;4154;48.810;9.012;2022-10-16T14:37:01;3.22;;;1.70;;
8225;SDS011;4154;48.810;9.012;2022-10-16T14:39:48;2.15;;;1.67;;
8225;SDS011;4154;48.810;9.012;2022-10-16T14:42:19;1.98;;;1.77;;
8225;SDS011;4154;48.810;9.012;2022-10-16T14:44:54;2.15;;;1.70;;
8225;SDS011;4154;48.810;9.012;2022-10-16T14:47:22;1.85;;;1.70;;
8225;SDS011;4154;48.810;9.012;2022-10-16T14:49:51;2.03;;;1.70;;
8225;SDS011;4154;48.810;9.012;2022-10-16T14:52:23;1.77;;;1.58;;
8225;SDS011;4154;48.810;9.012;2022-10-16T14:54:50;2.00;;;1.73;;
8225;SDS011;4154;48.810;9.012;2022-10-16T14:57:20;1.83;;;1.73;;
8225;SDS011;4154;48.810;9.012;2022-10-16T14:59:51;4.15;;;2.00;;
8225;SDS011;4154;48.810;9.012;2022-10-16T15:02:25;4.55;;;2.50;;
8225;SDS011;4154;48.810;9.012;2022-10-16T15:05:23;8.93;;;3.65;;
8225;SDS011;4154;48.810;9.012;2022-10-16T15:07:51;13.63;;;5.35;;
8225;SDS011;4154;48.810;9.012;2022-10-16T15:10:22;18.38;;;5.90;;
8225;SDS011;4154;48.810;9.012;2022-10-16T15:12:52;20.80;;;6.80;;
8225;SDS011;4154;48.810;9.012;2022-10-16T15:18:01;19.35;;;7.20;;
8225;SDS011;4154;48.810;9.012;2022-10-16T15:20:32;21.98;;;7.90;;
8225;SDS011;4154;48.810;9.012;2022-10-16T15:23:02;22.35;;;7.32;;
8225;SDS011;4154;48.810;9.012;2022-10-16T15:25:42;21.55;;;7.88;;
8225;SDS011;4154;48.810;9.012;2022-10-16T15:28:20;26.40;;;9.05;;
8225;SDS011;4154;48.810;9.012;2022-10-16T15:30:49;24.70;;;9.23;;
8225;SDS011;4154;48.810;9.012;2022-10-16T15:33:18;18.73;;;6.68;;
8225;SDS011;4154;48.810;9.012;2022-10-16T15:35:53;11.32;;;5.00;;
8225;SDS011;4154;48.810;9.012;2022-10-16T15:38:20;12.88;;;5.68;;
8225;SDS011;4154;48.810;9.012;2022-10-16T15:40:47;14.13;;;5.28;;
8225;SDS011;4154;48.810;9.012;2022-10-16T15:43:14;11.32;;;4.55;;
8225;SDS011;4154;48.810;9.012;2022-10-16T15:45:40;12.13;;;4.82;;
8225;SDS011;4154;48.810;9.012;2022-10-16T15:48:08;7.22;;;3.65;;
8225;SDS011;4154;48.810;9.012;2022-10-16T15:50:38;9.43;;;3.75;;
8225;SDS011;4154;48.810;9.012;2022-10-16T15:53:05;8.32;;;3.75;;
8225;SDS011;4154;48.810;9.012;2022-10-16T15:55:31;5.57;;;3.25;;
8225;SDS011;4154;48.810;9.012;2022-10-16T15:57:58;6.70;;;3.28;;
8225;SDS011;4154;48.810;9.012;2022-10-16T16:00:24;5.53;;;2.78;;
8225;SDS011;4154;48.810;9.012;2022-10-16T16:05:46;3.33;;;2.47;;
8225;SDS011;4154;48.810;9.012;2022-10-16T16:08:12;2.53;;;2.33;;
8225;SDS011;4154;48.810;9.012;2022-10-16T16:10:38;4.28;;;2.70;;
8225;SDS011;4154;48.810;9.012;2022-10-16T16:13:04;4.25;;;2.90;;
8225;SDS011;4154;48.810;9.012;2022-10-16T16:15:29;3.70;;;3.30;;
8225;SDS011;4154;48.810;9.012;2022-10-16T16:17:56;6.30;;;3.95;;
8225;SDS011;4154;48.810;9.012;2022-10-16T16:20:21;5.35;;;4.38;;
8225;SDS011;4154;48.810;9.012;2022-10-16T16:22:50;4.53;;;4.03;;
8225;SDS011;4154;48.810;9.012;2022-10-16T16:25:16;4.00;;;3.47;;
8225;SDS011;4154;48.810;9.012;2022-10-16T16:27:42;4.82;;;3.00;;
8225;SDS011;4154;48.810;9.012;2022-10-16T16:30:10;3.58;;;2.88;;
8225;SDS011;4154;48.810;9.012;2022-10-16T16:32:36;4.47;;;2.75;;
8225;SDS011;4154;48.810;9.012;2022-10-16T16:35:02;3.50;;;2.25;;
8225;SDS011;4154;48.810;9.012;2022-10-16T16:37:29;4.20;;;2.10;;
8225;SDS011;4154;48.810;9.012;2022-10-16T16:39:56;4.97;;;2.40;;
8225;SDS011;4154;48.810;9.012;2022-10-16T16:42:24;2.58;;;2.20;;
8225;SDS011;4154;48.810;9.012;2022-10-16T16:44:53;2.72;;;2.42;;
8225;SDS011;4154;48.810;9.012;2022-10-16T16:47:19;2.90;;;2.70;;
8225;SDS011;4154;48.810;9.012;2022-10-16T16:49:45;2.97;;;2.30;;
8225;SDS011;4154;48.810;9.012;2022-10-16T16:52:14;2.42;;;2.22;;
8225;SDS011;4154;48.810;9.012;2022-10-16T16:54:40;2.80;;;2.60;;
8225;SDS011;4154;48.810;9.012;2022-10-16T16:57:06;3.78;;;2.70;;
8225;SDS011;4154;48.810;9.012;2022-10-16T16:59:33;5.00;;;3.03;;
8225;SDS011;4154;48.810;9.012;2022-10-16T17:01:59;4.20;;;3.30;;
8225;SDS011;4154;48.810;9.012;2022-10-16T17:04:25;3.25;;;2.95;;
8225;SDS011;4154;48.810;9.012;2022-10-16T17:06:52;3.50;;;3.20;;
8225;SDS011;4154;48.810;9.012;2022-10-16T17:09:20;4.60;;;3.10;;
8225;SDS011;4154;48.810;9.012;2022-10-16T17:11:46;3.83;;;3.00;;
8225;SDS011;4154;48.810;9.012;2022-10-16T17:14:13;5.20;;;3.17;;
8225;SDS011;4154;48.810;9.012;2022-10-16T17:16:40;4.60;;;2.95;;
8225;SDS011;4154;48.810;9.012;2022-10-16T17:19:11;5.78;;;3.38;;
8225;SDS011;4154;48.810;9.012;2022-10-16T17:21:41;4.47;;;3.20;;
8225;SDS011;4154;48.810;9.012;2022-10-16T17:24:08;5.15;;;3.97;;
8225;SDS011;4154;48.810;9.012;2022-10-16T17:26:35;5.55;;;3.70;;
8225;SDS011;4154;48.810;9.012;2022-10-16T17:29:02;3.78;;;3.28;;
8225;SDS011;4154;48.810;9.012;2022-10-16T17:31:30;5.45;;;3.30;;
8225;SDS011;4154;48.810;9.012;2022-10-16T17:34:01;6.28;;;3.50;;
8225;SDS011;4154;48.810;9.012;2022-10-16T17:36:31;6.07;;;3.92;;
8225;SDS011;4154;48.810;9.012;2022-10-16T17:39:01;7.70;;;3.67;;
8225;SDS011;4154;48.810;9.012;2022-10-16T17:41:31;7.70;;;3.83;;
8225;SDS011;4154;48.810;9.012;2022-10-16T17:43:58;6.30;;;3.70;;
8225;SDS011;4154;48.810;9.012;2022-10-16T17:46:25;7.95;;;4.43;;
8225;SDS011;4154;48.810;9.012;2022-10-16T17:48:51;7.13;;;4.40;;
8225;SDS011;4154;48.810;9.012;2022-10-16T17:51:20;5.60;;;4.78;;
8225;SDS011;4154;48.810;9.012;2022-10-16T17:53:53;6.38;;;4.88;;
8225;SDS011;4154;48.810;9.012;2022-10-16T17:56:22;5.40;;;4.90;;